createdAt,value
2023-04-17T00:00:31.240Z,71.94
2023-04-17T00:03:01.740Z,71.94
2023-04-17T00:05:31.988Z,71.71
2023-04-17T00:08:00.419Z,71.80
2023-04-17T00:10:29.703Z,71.77
2023-04-17T00:12:57.728Z,71.84
2023-04-17T00:15:25.724Z,71.79
2023-04-17T00:17:53.661Z,72.06
2023-04-17T00:20:21.763Z,72.03
2023-04-17T00:22:49.707Z,72.15
2023-04-17T00:25:17.641Z,71.98
2023-04-17T00:27:47.167Z,72.13
2023-04-17T00:30:15.282Z,71.80
2023-04-17T00:32:43.214Z,71.99
2023-04-17T00:35:11.385Z,72.15
2023-04-17T00:37:39.307Z,71.83
2023-04-17T00:40:08.448Z,71.97
2023-04-17T00:42:36.422Z,72.09
2023-04-17T00:45:06.536Z,71.79
2023-04-17T00:47:34.679Z,72.42
2023-04-17T00:50:03.130Z,72.10
2023-04-17T00:52:31.600Z,72.89
2023-04-17T00:55:00.387Z,72.18
2023-04-17T00:57:28.504Z,72.21
2023-04-17T00:59:57.677Z,72.05
2023-04-17T01:02:27.201Z,72.35
2023-04-17T01:04:55.316Z,72.38
2023-04-17T01:07:23.212Z,72.37
2023-04-17T01:09:51.141Z,72.27
2023-04-17T01:12:20.608Z,72.15
2023-04-17T01:14:48.862Z,72.31
2023-04-17T01:17:19.006Z,72.44
2023-04-17T01:19:49.011Z,72.43
2023-04-17T01:22:17.465Z,72.51
2023-04-17T01:24:46.981Z,72.50
2023-04-17T01:27:15.364Z,72.21
2023-04-17T01:29:43.467Z,72.45
2023-04-17T01:32:11.572Z,72.63
2023-04-17T01:34:39.461Z,72.87
2023-04-17T01:37:07.573Z,72.78
2023-04-17T01:39:35.587Z,72.42
2023-04-17T01:42:05.268Z,72.90
2023-04-17T01:44:33.378Z,73.02
2023-04-17T01:47:01.457Z,72.82
2023-04-17T01:49:29.642Z,72.92
2023-04-17T01:51:57.534Z,72.49
2023-04-17T01:54:26.011Z,73.09
2023-04-17T01:56:55.114Z,73.01
2023-04-17T01:59:24.500Z,73.71
2023-04-17T02:01:52.733Z,72.77
2023-04-17T02:04:21.001Z,72.92
2023-04-17T02:06:48.980Z,72.92
2023-04-17T02:09:16.957Z,72.71
2023-04-17T02:11:44.870Z,73.08
2023-04-17T02:14:12.827Z,73.31
2023-04-17T02:16:46.106Z,73.12
2023-04-17T02:19:14.420Z,72.79
2023-04-17T02:21:42.300Z,73.39
2023-04-17T02:24:10.413Z,72.88
2023-04-17T02:26:38.396Z,72.88
2023-04-17T02:29:06.299Z,73.34
2023-04-17T02:31:34.230Z,72.94
2023-04-17T02:34:03.693Z,73.08
2023-04-17T02:36:32.055Z,73.08
2023-04-17T02:38:59.960Z,72.49
2023-04-17T02:41:27.915Z,72.75
2023-04-17T02:43:56.751Z,72.71
2023-04-17T02:46:24.734Z,72.54
2023-04-17T02:48:52.657Z,72.93
2023-04-17T02:51:21.936Z,72.82
2023-04-17T02:53:50.250Z,73.40
2023-04-17T02:56:18.409Z,72.67
2023-04-17T02:58:46.363Z,72.91
2023-04-17T03:01:14.268Z,72.98
2023-04-17T03:03:43.144Z,72.72
2023-04-17T03:06:11.357Z,72.86
2023-04-17T03:08:40.619Z,72.80
2023-04-17T03:11:08.587Z,73.60
2023-04-17T03:13:37.631Z,72.61
2023-04-17T03:16:06.401Z,72.89
2023-04-17T03:18:36.442Z,73.17
2023-04-17T03:21:04.544Z,73.06
2023-04-17T03:23:32.518Z,73.33
2023-04-17T03:26:02.058Z,73.55
2023-04-17T03:28:29.981Z,72.93
2023-04-17T03:30:59.550Z,73.84
2023-04-17T03:33:27.511Z,73.21
2023-04-17T03:35:55.435Z,73.03
2023-04-17T03:38:23.313Z,73.88
2023-04-17T03:40:51.512Z,73.45
2023-04-17T03:43:20.797Z,73.40
2023-04-17T03:45:48.784Z,74.26
2023-04-17T03:48:16.718Z,74.55
2023-04-17T03:50:44.630Z,73.99
2023-04-17T03:53:12.542Z,74.06
2023-04-17T03:55:40.824Z,73.51
2023-04-17T03:58:08.717Z,73.52
2023-04-17T04:00:38.591Z,73.53
2023-04-17T04:03:06.712Z,75.19
2023-04-17T04:05:34.731Z,76.39
2023-04-17T04:08:02.635Z,77.24
2023-04-17T04:10:32.504Z,75.46
2023-04-17T04:13:00.494Z,75.08
2023-04-17T04:15:28.438Z,74.72
2023-04-17T04:17:57.761Z,75.30
2023-04-17T04:20:25.700Z,74.54
2023-04-17T04:22:53.784Z,75.42
2023-04-17T04:25:21.858Z,74.51
2023-04-17T04:27:50.682Z,75.07
2023-04-17T04:30:18.652Z,74.07
2023-04-17T04:32:46.713Z,74.47
2023-04-17T04:35:16.902Z,74.08
2023-04-17T04:37:46.472Z,73.90
2023-04-17T04:40:14.960Z,74.04
2023-04-17T04:42:43.113Z,74.18
2023-04-17T04:45:11.862Z,74.19
2023-04-17T04:47:39.821Z,76.01
2023-04-17T04:50:08.856Z,75.13
2023-04-17T04:52:38.173Z,74.67
2023-04-17T04:55:07.460Z,74.77
2023-04-17T04:57:36.373Z,76.32
2023-04-17T05:00:06.512Z,74.62
2023-04-17T05:02:34.876Z,74.05
2023-04-17T05:05:03.008Z,73.76
2023-04-17T05:07:31.065Z,74.23
2023-04-17T05:10:00.488Z,73.91
2023-04-17T05:12:28.420Z,73.50
2023-04-17T05:14:56.312Z,73.54
2023-04-17T05:17:24.230Z,73.87
2023-04-17T05:19:52.311Z,73.53
2023-04-17T05:22:20.244Z,73.49
2023-04-17T05:24:48.154Z,73.39
2023-04-17T05:27:17.739Z,73.65
2023-04-17T05:29:45.722Z,73.38
2023-04-17T05:32:13.650Z,73.22
2023-04-17T05:34:41.529Z,73.66
2023-04-17T05:37:09.658Z,73.43
2023-04-17T05:39:38.052Z,73.29
2023-04-17T05:42:06.145Z,73.49
2023-04-17T05:44:35.448Z,73.11
2023-04-17T05:47:03.679Z,73.59
2023-04-17T05:49:31.619Z,72.74
2023-04-17T05:51:59.550Z,72.95
2023-04-17T05:54:28.998Z,72.92
2023-04-17T05:56:56.988Z,72.77
2023-04-17T05:59:25.324Z,73.77
2023-04-17T06:01:54.707Z,72.85
2023-04-17T06:04:22.915Z,72.37
2023-04-17T06:06:51.079Z,75.88
2023-04-17T06:09:19.264Z,73.12
2023-04-17T06:11:47.292Z,72.44
2023-04-17T06:14:15.199Z,72.58
2023-04-17T06:16:45.892Z,72.43
2023-04-17T06:19:15.316Z,72.77
2023-04-17T06:21:43.212Z,72.71
2023-04-17T06:24:11.148Z,72.43
2023-04-17T06:26:39.076Z,72.39
2023-04-17T06:29:06.972Z,72.46
2023-04-17T06:31:35.008Z,72.27
2023-04-17T06:34:03.071Z,72.38
2023-04-17T06:36:33.335Z,72.61
2023-04-17T06:39:01.244Z,72.61
2023-04-17T06:41:29.152Z,72.72
2023-04-17T06:43:57.106Z,72.73
2023-04-17T06:46:25.105Z,72.87
2023-04-17T06:48:53.024Z,72.45
2023-04-17T06:51:21.769Z,72.71
2023-04-17T06:53:51.110Z,72.69
2023-04-17T06:56:19.499Z,73.04
2023-04-17T06:58:47.706Z,73.08
2023-04-17T07:01:15.963Z,74.09
2023-04-17T07:03:44.621Z,76.40
2023-04-17T07:06:12.665Z,76.45
2023-04-17T07:08:40.623Z,74.22
2023-04-17T07:11:09.924Z,75.75
2023-04-17T07:13:37.907Z,73.67
2023-04-17T07:16:06.889Z,73.17
2023-04-17T07:18:34.990Z,74.31
2023-04-17T07:21:03.077Z,73.26
2023-04-17T07:23:31.147Z,73.08
2023-04-17T07:25:59.206Z,72.34
2023-04-17T07:28:28.511Z,72.85
2023-04-17T07:30:58.173Z,75.31
2023-04-17T07:33:26.500Z,74.20
2023-04-17T07:35:54.433Z,71.80
2023-04-17T07:38:22.340Z,72.00
2023-04-17T07:40:50.260Z,71.68
2023-04-17T07:43:18.433Z,72.10
2023-04-17T07:45:49.000Z,70.85
2023-04-17T07:48:18.631Z,70.81
2023-04-17T07:50:47.074Z,70.37
2023-04-17T07:53:15.045Z,70.44
2023-04-17T07:55:42.928Z,70.44
2023-04-17T07:58:11.453Z,70.39
2023-04-17T08:00:39.461Z,69.54
2023-04-17T08:03:09.165Z,69.44
2023-04-17T08:05:37.266Z,68.89
2023-04-17T08:08:05.788Z,69.93
2023-04-17T08:10:33.753Z,69.83
2023-04-17T08:13:01.861Z,69.27
2023-04-17T08:15:29.952Z,69.82
2023-04-17T08:17:58.556Z,69.51
2023-04-17T08:20:28.187Z,69.38
2023-04-17T08:22:56.099Z,66.77
2023-04-17T08:25:24.232Z,67.85
2023-04-17T08:27:52.962Z,66.49
2023-04-17T08:30:21.130Z,67.88
2023-04-17T08:32:52.236Z,65.65
2023-04-17T08:35:20.838Z,67.63
2023-04-17T08:37:50.553Z,64.60
2023-04-17T08:40:18.930Z,67.05
2023-04-17T08:42:48.284Z,66.94
2023-04-17T08:45:17.483Z,67.39
2023-04-17T08:47:45.511Z,66.64
2023-04-17T08:50:14.961Z,66.28
2023-04-17T08:52:46.591Z,66.65
2023-04-17T08:55:16.898Z,65.54
2023-04-17T08:57:58.317Z,64.90
2023-04-17T09:00:27.609Z,61.39
2023-04-17T09:02:57.297Z,63.31
2023-04-17T09:05:26.860Z,63.68
2023-04-17T09:08:08.653Z,65.09
2023-04-17T09:10:39.217Z,60.76
2023-04-17T09:13:07.622Z,62.41
2023-04-17T09:15:36.249Z,60.42
2023-04-17T09:18:04.456Z,60.19
2023-04-17T09:20:32.650Z,61.45
2023-04-17T09:23:02.590Z,61.13
2023-04-17T09:25:31.007Z,59.85
2023-04-17T09:28:12.814Z,60.37
2023-04-17T09:30:41.637Z,60.30
2023-04-17T09:33:12.131Z,60.99
2023-04-17T09:35:40.670Z,60.04
2023-04-17T09:38:08.793Z,60.82
2023-04-17T09:40:41.103Z,60.24
2023-04-17T09:43:11.516Z,58.22
2023-04-17T09:45:42.794Z,59.10
2023-04-17T09:48:12.226Z,61.21
2023-04-17T09:50:41.278Z,61.88
2023-04-17T09:53:10.211Z,61.81
2023-04-17T09:55:39.725Z,61.39
2023-04-17T09:58:09.338Z,59.99
2023-04-17T10:00:42.838Z,59.09
2023-04-17T10:03:11.531Z,58.59
2023-04-17T10:05:40.048Z,60.98
2023-04-17T10:08:08.417Z,61.31
2023-04-17T10:10:36.592Z,58.18
2023-04-17T10:13:08.670Z,59.78
2023-04-17T10:15:38.273Z,59.58
2023-04-17T10:18:23.388Z,56.61
2023-04-17T10:20:53.627Z,60.40
2023-04-17T10:23:32.724Z,59.93
2023-04-17T10:26:43.256Z,59.94
2023-04-17T10:29:12.764Z,59.46
2023-04-17T10:32:20.594Z,59.13
2023-04-17T10:34:50.040Z,58.38
2023-04-17T10:37:17.948Z,52.60
2023-04-17T10:39:57.734Z,58.90
2023-04-17T10:42:26.713Z,58.24
2023-04-17T10:44:59.785Z,51.43
2023-04-17T10:47:32.385Z,56.26
2023-04-17T10:50:06.379Z,52.95
2023-04-17T10:52:42.094Z,57.39
2023-04-17T10:55:11.252Z,54.20
2023-04-17T10:57:56.841Z,52.94
2023-04-17T11:00:38.005Z,55.59
2023-04-17T11:03:07.268Z,56.98
2023-04-17T11:05:36.755Z,57.93
2023-04-17T11:08:04.750Z,55.95
2023-04-17T11:10:37.122Z,56.37
2023-04-17T11:13:05.708Z,56.01
2023-04-17T11:15:35.423Z,54.62
2023-04-17T11:18:04.037Z,53.63
2023-04-17T11:20:34.151Z,54.27
2023-04-17T11:23:04.159Z,53.58
2023-04-17T11:25:34.399Z,53.11
2023-04-17T11:28:04.451Z,54.17
2023-04-17T11:30:34.262Z,52.51
2023-04-17T11:33:03.206Z,53.31
2023-04-17T11:35:33.095Z,53.23
2023-04-17T11:38:17.866Z,53.43
2023-04-17T11:40:47.615Z,52.57
2023-04-17T11:43:15.666Z,51.63
2023-04-17T11:45:45.019Z,50.86
2023-04-17T11:48:14.160Z,52.43
2023-04-17T11:50:43.604Z,50.77
2023-04-17T11:53:16.670Z,51.24
2023-04-17T11:55:45.644Z,50.18
2023-04-17T11:58:15.290Z,50.60
2023-04-17T12:00:43.722Z,48.32
2023-04-17T12:03:35.110Z,50.06
2023-04-17T12:06:04.827Z,49.35
2023-04-17T12:08:44.937Z,49.75
2023-04-17T12:11:25.161Z,49.79
2023-04-17T12:13:53.340Z,49.88
2023-04-17T12:16:21.461Z,50.68
2023-04-17T12:18:49.560Z,49.04
2023-04-17T12:21:18.053Z,50.38
2023-04-17T12:23:47.424Z,51.22
2023-04-17T12:26:15.418Z,49.86
2023-04-17T12:28:43.437Z,50.68
2023-04-17T12:31:11.458Z,46.25
2023-04-17T12:33:39.475Z,45.88
2023-04-17T12:36:08.516Z,46.23
2023-04-17T12:38:36.537Z,47.47
2023-04-17T12:41:05.885Z,48.16
2023-04-17T12:43:34.199Z,43.66
2023-04-17T12:46:03.233Z,47.84
2023-04-17T12:48:33.010Z,47.54
2023-04-17T12:51:01.342Z,45.27
2023-04-17T12:53:30.071Z,46.73
2023-04-17T12:55:58.792Z,45.84
2023-04-17T12:58:28.093Z,43.02
2023-04-17T13:00:56.098Z,40.53
2023-04-17T13:03:24.211Z,45.55
2023-04-17T13:05:53.386Z,39.99
2023-04-17T13:08:21.534Z,45.99
2023-04-17T13:10:49.436Z,43.85
2023-04-17T13:13:17.319Z,45.38
2023-04-17T13:15:47.942Z,39.22
2023-04-17T13:18:16.008Z,43.87
2023-04-17T13:20:43.957Z,46.44
2023-04-17T13:23:12.048Z,44.97
2023-04-17T13:25:40.030Z,41.47
2023-04-17T13:28:07.965Z,43.46
2023-04-17T13:30:37.256Z,46.14
2023-04-17T13:33:06.900Z,43.33
2023-04-17T13:35:34.836Z,45.19
2023-04-17T13:38:03.198Z,47.08
2023-04-17T13:40:31.248Z,46.37
2023-04-17T13:43:00.380Z,44.94
2023-04-17T13:45:28.421Z,45.44
2023-04-17T13:47:56.393Z,44.16
2023-04-17T13:50:25.702Z,45.15
2023-04-17T13:52:53.727Z,45.77
2023-04-17T13:55:21.689Z,43.21
2023-04-17T13:57:51.054Z,42.52
2023-04-17T14:00:20.877Z,43.75
2023-04-17T14:02:49.174Z,44.06
2023-04-17T14:05:17.311Z,41.78
2023-04-17T14:07:46.595Z,41.94
2023-04-17T14:10:14.560Z,41.74
2023-04-17T14:12:42.528Z,40.55
2023-04-17T14:15:11.563Z,40.20
2023-04-17T14:17:43.389Z,39.55
2023-04-17T14:20:12.402Z,40.34
2023-04-17T14:22:40.313Z,38.50
2023-04-17T14:25:10.556Z,38.81
2023-04-17T14:27:41.318Z,38.73
2023-04-17T14:30:10.153Z,38.65
2023-04-17T14:32:38.682Z,39.35
2023-04-17T14:35:07.645Z,38.49
2023-04-17T14:37:35.623Z,34.28
2023-04-17T14:40:04.796Z,38.60
2023-04-17T14:42:38.241Z,38.28
2023-04-17T14:45:15.261Z,38.72
2023-04-17T14:47:44.000Z,38.18
2023-04-17T14:52:43.135Z,33.89
2023-04-17T14:55:12.492Z,38.20
2023-04-17T14:57:41.913Z,37.41
2023-04-17T15:00:10.636Z,36.95
2023-04-17T15:02:39.543Z,37.83
2023-04-17T15:05:08.499Z,37.28
2023-04-17T15:07:36.517Z,36.75
2023-04-17T15:10:04.977Z,33.61
2023-04-17T15:12:32.908Z,38.07
2023-04-17T15:15:02.252Z,37.27
2023-04-17T15:17:30.200Z,36.41
2023-04-17T15:20:00.373Z,33.02
2023-04-17T15:22:28.642Z,37.04
2023-04-17T15:24:56.591Z,36.03
2023-04-17T15:27:24.698Z,37.06
2023-04-17T15:29:52.936Z,37.39
2023-04-17T15:32:22.314Z,35.31
2023-04-17T15:34:50.249Z,35.47
2023-04-17T15:37:18.154Z,35.18
2023-04-17T15:39:46.229Z,35.64
2023-04-17T15:42:14.179Z,35.06
2023-04-17T15:44:42.150Z,35.37
2023-04-17T15:47:10.120Z,35.53
2023-04-17T15:49:39.448Z,35.20
2023-04-17T15:52:07.662Z,33.50
2023-04-17T15:54:35.638Z,34.93
2023-04-17T15:57:03.517Z,35.30
2023-04-17T15:59:32.058Z,34.29
2023-04-17T16:02:00.226Z,35.30
2023-04-17T16:04:28.686Z,35.30
2023-04-17T16:06:58.084Z,34.88
2023-04-17T16:09:25.985Z,35.27
2023-04-17T16:11:53.867Z,35.89
2023-04-17T16:14:21.827Z,35.53
2023-04-17T16:16:49.714Z,35.08
2023-04-17T16:19:17.642Z,35.77
2023-04-17T16:21:45.591Z,35.04
2023-04-17T16:24:14.914Z,35.66
2023-04-17T16:26:42.816Z,36.41
2023-04-17T16:29:10.927Z,35.44
2023-04-17T16:31:38.907Z,35.85
2023-04-17T16:34:06.846Z,33.87
2023-04-17T16:36:34.787Z,36.69
2023-04-17T16:39:03.627Z,36.79
2023-04-17T16:41:32.939Z,34.71
2023-04-17T16:44:01.008Z,35.35
2023-04-17T16:46:40.320Z,35.60
2023-04-17T16:49:16.877Z,35.63
2023-04-17T16:51:47.195Z,36.44
2023-04-17T16:54:19.437Z,36.06
2023-04-17T16:56:49.254Z,38.58
2023-04-17T16:59:17.387Z,35.69
2023-04-17T17:01:47.072Z,36.23
2023-04-17T17:04:15.229Z,38.05
2023-04-17T17:06:43.415Z,37.71
2023-04-17T17:09:11.590Z,36.35
2023-04-17T17:11:39.714Z,34.37
2023-04-17T17:14:09.044Z,37.40
2023-04-17T17:16:37.049Z,36.46
2023-04-17T17:19:06.015Z,38.00
2023-04-17T17:21:34.231Z,36.02
2023-04-17T17:24:02.144Z,39.56
2023-04-17T17:26:30.110Z,39.55
2023-04-17T17:28:58.197Z,38.38
2023-04-17T17:31:27.516Z,39.90
2023-04-17T17:33:55.928Z,40.36
2023-04-17T17:36:23.835Z,41.18
2023-04-17T17:38:55.893Z,38.63
2023-04-17T17:41:24.151Z,39.33
2023-04-17T17:43:52.424Z,40.84
2023-04-17T17:46:21.304Z,42.79
2023-04-17T17:48:50.765Z,41.82
2023-04-17T17:51:18.686Z,42.90
2023-04-17T17:53:46.632Z,41.35
2023-04-17T17:56:15.199Z,41.25
2023-04-17T17:58:43.091Z,41.42
2023-04-17T18:01:11.071Z,43.57
2023-04-17T18:03:39.088Z,44.96
2023-04-17T18:06:08.507Z,44.26
2023-04-17T18:08:38.398Z,44.52
2023-04-17T18:11:06.393Z,45.46
2023-04-17T18:13:34.379Z,45.34
2023-04-17T18:16:04.656Z,42.00
2023-04-17T18:18:32.807Z,43.05
2023-04-17T18:21:00.818Z,43.60
2023-04-17T18:23:30.121Z,45.85
2023-04-17T18:25:58.891Z,45.45
2023-04-17T18:28:27.004Z,46.93
2023-04-17T18:30:55.106Z,46.38
2023-04-17T18:33:23.092Z,46.64
2023-04-17T18:35:51.079Z,43.96
2023-04-17T18:38:19.066Z,47.17
2023-04-17T18:40:48.353Z,47.62
2023-04-17T18:43:16.300Z,47.25
2023-04-17T18:45:44.228Z,46.54
2023-04-17T18:48:12.124Z,46.42
2023-04-17T18:50:40.152Z,47.35
2023-04-17T18:53:08.078Z,45.81
2023-04-17T18:55:37.210Z,47.35
2023-04-17T18:58:06.549Z,47.37
2023-04-17T19:00:34.524Z,47.81
2023-04-17T19:03:02.460Z,47.37
2023-04-17T19:05:30.456Z,47.79
2023-04-17T19:07:58.376Z,47.78
2023-04-17T19:10:26.324Z,48.32
2023-04-17T19:12:54.224Z,48.14
2023-04-17T19:15:24.308Z,49.33
2023-04-17T19:17:52.811Z,49.96
2023-04-17T19:20:22.764Z,49.04
2023-04-17T19:22:50.766Z,50.43
2023-04-17T19:25:18.740Z,49.84
2023-04-17T19:27:46.693Z,50.31
2023-04-17T19:30:14.777Z,49.93
2023-04-17T19:32:44.667Z,49.75
2023-04-17T19:35:12.623Z,49.28
2023-04-17T19:37:40.528Z,51.21
2023-04-17T19:40:21.384Z,51.44
2023-04-17T19:42:52.645Z,51.17
2023-04-17T19:45:20.887Z,51.24
2023-04-17T19:47:55.047Z,52.44
2023-04-17T19:50:23.816Z,51.93
2023-04-17T19:52:51.997Z,51.86
2023-04-17T19:55:20.140Z,51.72
2023-04-17T19:57:49.468Z,52.23
2023-04-17T20:00:17.784Z,52.73
2023-04-17T20:02:46.218Z,51.34
2023-04-17T20:05:17.017Z,51.76
2023-04-17T20:07:44.920Z,53.11
2023-04-17T20:10:13.073Z,53.46
2023-04-17T20:12:41.066Z,52.88
2023-04-17T20:15:10.358Z,52.56
2023-04-17T20:17:38.423Z,52.85
2023-04-17T20:20:07.815Z,52.92
2023-04-17T20:22:37.140Z,53.26
2023-04-17T20:25:05.613Z,53.90
2023-04-17T20:27:33.542Z,52.28
2023-04-17T20:30:01.489Z,53.90
2023-04-17T20:32:29.391Z,51.55
2023-04-17T20:34:57.355Z,54.03
2023-04-17T20:37:25.300Z,53.67
2023-04-17T20:39:54.613Z,53.64
2023-04-17T20:42:22.543Z,54.32
2023-04-17T20:44:50.458Z,53.23
2023-04-17T20:47:18.339Z,53.27
2023-04-17T20:49:46.300Z,55.15
2023-04-17T20:52:14.189Z,54.95
2023-04-17T20:54:42.209Z,55.04
2023-04-17T20:57:11.537Z,55.66
2023-04-17T20:59:39.425Z,55.69
2023-04-17T21:02:07.475Z,55.72
2023-04-17T21:04:35.505Z,55.44
2023-04-17T21:07:03.588Z,56.15
2023-04-17T21:09:31.545Z,55.54
2023-04-17T21:11:59.466Z,55.77
2023-04-17T21:14:29.572Z,55.66
2023-04-17T21:16:58.586Z,55.67
2023-04-17T21:19:27.359Z,56.05
2023-04-17T21:21:55.424Z,56.59
2023-04-17T21:24:23.362Z,56.66
2023-04-17T21:26:51.339Z,56.69
2023-04-17T21:29:19.283Z,56.34
2023-04-17T21:31:48.635Z,56.23
2023-04-17T21:34:16.575Z,56.33
2023-04-17T21:36:44.523Z,57.21
2023-04-17T21:39:12.414Z,56.92
2023-04-17T21:41:40.312Z,56.68
2023-04-17T21:44:10.297Z,57.35
2023-04-17T21:46:38.679Z,57.87
2023-04-17T21:49:07.963Z,57.57
2023-04-17T21:51:35.970Z,57.74
2023-04-17T21:54:04.235Z,57.43
2023-04-17T21:56:33.105Z,57.68
2023-04-17T21:59:01.008Z,57.40
2023-04-17T22:01:29.148Z,57.68
2023-04-17T22:03:57.063Z,57.86
2023-04-17T22:06:26.554Z,57.97
2023-04-17T22:08:54.468Z,58.19
2023-04-17T22:11:23.138Z,58.24
2023-04-17T22:13:51.052Z,58.98
2023-04-17T22:16:18.978Z,58.63
2023-04-17T22:18:46.938Z,58.57
2023-04-17T22:21:14.917Z,58.98
2023-04-17T22:23:44.281Z,58.46
2023-04-17T22:26:12.301Z,58.94
2023-04-17T22:28:40.212Z,58.99
2023-04-17T22:31:08.193Z,59.02
2023-04-17T22:33:36.133Z,59.51
2023-04-17T22:36:04.260Z,59.67
2023-04-17T22:38:32.221Z,59.29
2023-04-17T22:41:01.609Z,59.16
2023-04-17T22:43:29.549Z,59.59
2023-04-17T22:45:57.557Z,59.50
2023-04-17T22:48:25.671Z,59.49
2023-04-17T22:50:53.623Z,59.46
2023-04-17T22:53:22.495Z,59.72
2023-04-17T22:56:02.279Z,60.26
2023-04-17T22:58:32.348Z,60.19
2023-04-17T23:01:03.013Z,60.23
2023-04-17T23:03:31.003Z,60.49
2023-04-17T23:05:58.923Z,60.51
2023-04-17T23:08:26.956Z,60.34
2023-04-17T23:10:59.767Z,60.57
2023-04-17T23:13:29.245Z,60.26
2023-04-17T23:15:57.292Z,60.50
2023-04-17T23:18:25.461Z,60.82
2023-04-17T23:20:53.394Z,60.53
2023-04-17T23:23:21.602Z,60.57
2023-04-17T23:25:49.503Z,60.86
2023-04-17T23:28:17.452Z,60.83
2023-04-17T23:30:46.751Z,60.94
2023-04-17T23:33:14.676Z,60.82
2023-04-17T23:35:42.577Z,61.00
2023-04-17T23:38:10.503Z,60.90
2023-04-17T23:40:38.437Z,61.34
2023-04-17T23:43:06.348Z,61.53
2023-04-17T23:45:34.257Z,61.45
2023-04-17T23:48:03.599Z,61.90
2023-04-17T23:50:31.513Z,61.29
2023-04-17T23:52:59.434Z,61.62
2023-04-17T23:55:27.424Z,61.75
2023-04-17T23:57:55.381Z,61.43
